createdAt,value
2018-07-15T00:00:21.906Z,6.50
2018-07-15T00:01:25.269Z,6.10
2018-07-15T00:02:29.684Z,6.13
2018-07-15T00:03:33.224Z,6.10
2018-07-15T00:04:36.726Z,6.03
2018-07-15T00:05:40.569Z,7.27
2018-07-15T00:06:43.976Z,7.30
2018-07-15T00:07:47.324Z,5.37
2018-07-15T00:08:51.237Z,6.00
2018-07-15T00:09:54.656Z,6.30
2018-07-15T00:10:58.432Z,6.63
2018-07-15T00:12:02.150Z,6.97
2018-07-15T00:13:05.802Z,6.67
2018-07-15T00:14:09.193Z,6.40
2018-07-15T00:15:12.681Z,6.40
2018-07-15T00:16:16.025Z,9.00
2018-07-15T00:17:20.161Z,7.20
2018-07-15T00:18:23.638Z,7.47
2018-07-15T00:19:27.149Z,7.10
2018-07-15T00:20:30.668Z,7.60
2018-07-15T00:21:34.071Z,6.80
2018-07-15T00:22:37.875Z,7.07
2018-07-15T00:23:41.428Z,8.40
2018-07-15T00:24:44.492Z,8.30
2018-07-15T00:25:47.925Z,7.83
2018-07-15T00:26:51.712Z,8.77
2018-07-15T00:27:55.167Z,8.40
2018-07-15T00:28:58.610Z,8.20
2018-07-15T00:30:02.068Z,9.17
2018-07-15T00:31:05.516Z,8.40
2018-07-15T00:32:08.870Z,8.70
2018-07-15T00:33:12.227Z,8.30
2018-07-15T00:34:15.699Z,7.80
2018-07-15T00:35:18.846Z,7.30
2018-07-15T00:36:22.244Z,9.07
2018-07-15T00:37:25.637Z,8.17
2018-07-15T00:38:29.002Z,8.10
2018-07-15T00:39:32.349Z,8.50
2018-07-15T00:40:35.728Z,7.60
2018-07-15T00:41:39.114Z,8.60
2018-07-15T00:42:42.573Z,6.80
2018-07-15T00:43:46.061Z,8.27
2018-07-15T00:44:49.524Z,7.43
2018-07-15T00:45:52.915Z,7.50
2018-07-15T00:46:56.379Z,7.53
2018-07-15T00:47:59.816Z,7.73
2018-07-15T00:49:03.279Z,7.10
2018-07-15T00:50:06.822Z,7.90
2018-07-15T00:51:10.233Z,8.20
2018-07-15T00:52:13.836Z,7.10
2018-07-15T00:53:17.484Z,7.53
2018-07-15T00:54:21.044Z,7.20
2018-07-15T00:55:24.713Z,6.77
2018-07-15T00:56:28.107Z,7.07
2018-07-15T00:57:31.709Z,7.67
2018-07-15T00:58:35.469Z,6.60
2018-07-15T00:59:38.865Z,8.00
2018-07-15T01:00:47.756Z,6.70
2018-07-15T01:01:51.182Z,7.47
2018-07-15T01:02:54.488Z,6.90
2018-07-15T01:03:58.561Z,7.47
2018-07-15T01:05:02.009Z,7.73
2018-07-15T01:06:05.473Z,6.93
2018-07-15T01:07:08.854Z,7.20
2018-07-15T01:08:12.212Z,7.27
2018-07-15T01:09:15.816Z,6.67
2018-07-15T01:10:19.177Z,7.63
2018-07-15T01:11:22.505Z,7.20
2018-07-15T01:12:25.980Z,6.73
2018-07-15T01:13:29.728Z,6.63
2018-07-15T01:14:33.056Z,7.13
2018-07-15T01:15:36.436Z,7.23
2018-07-15T01:16:40.879Z,6.83
2018-07-15T01:17:44.387Z,7.17
2018-07-15T01:18:47.778Z,7.33
2018-07-15T01:19:52.229Z,6.57
2018-07-15T01:20:55.693Z,5.90
2018-07-15T01:21:59.073Z,6.20
2018-07-15T01:23:02.513Z,6.67
2018-07-15T01:24:05.980Z,6.37
2018-07-15T01:25:09.462Z,6.30
2018-07-15T01:26:12.842Z,6.20
2018-07-15T01:27:16.348Z,6.70
2018-07-15T01:28:19.824Z,5.53
2018-07-15T01:29:23.125Z,7.20
2018-07-15T01:30:27.186Z,5.90
2018-07-15T01:31:30.675Z,6.50
2018-07-15T01:32:34.333Z,7.03
2018-07-15T01:33:37.905Z,6.23
2018-07-15T01:34:41.309Z,6.40
2018-07-15T01:35:44.831Z,5.50
2018-07-15T01:36:48.307Z,6.47
2018-07-15T01:37:51.844Z,6.60
2018-07-15T01:38:55.288Z,6.47
2018-07-15T01:39:58.620Z,5.90
2018-07-15T01:41:02.197Z,6.67
2018-07-15T01:42:05.741Z,5.80
2018-07-15T01:43:09.220Z,6.80
2018-07-15T01:44:12.277Z,5.80
2018-07-15T01:45:15.403Z,5.97
2018-07-15T01:46:18.833Z,7.03
2018-07-15T01:47:22.194Z,5.60
2018-07-15T01:48:25.641Z,5.40
2018-07-15T01:49:29.018Z,6.30
2018-07-15T01:50:32.506Z,5.73
2018-07-15T01:51:35.853Z,5.77
2018-07-15T01:52:39.181Z,5.47
2018-07-15T01:53:42.546Z,7.07
2018-07-15T01:54:45.970Z,6.10
2018-07-15T01:55:50.636Z,5.90
2018-07-15T01:56:53.985Z,5.00
2018-07-15T01:57:57.351Z,6.17
2018-07-15T01:59:00.826Z,5.70
2018-07-15T02:00:04.808Z,5.60
2018-07-15T02:01:10.652Z,5.47
2018-07-15T02:02:13.976Z,4.93
2018-07-15T02:03:17.463Z,6.57
2018-07-15T02:04:21.764Z,5.10
2018-07-15T02:05:25.179Z,5.30
2018-07-15T02:06:28.591Z,6.50
2018-07-15T02:07:31.908Z,5.30
2018-07-15T02:08:35.240Z,4.93
2018-07-15T02:09:38.626Z,5.60
2018-07-15T02:10:42.040Z,5.23
2018-07-15T02:11:45.391Z,5.43
2018-07-15T02:12:48.716Z,5.77
2018-07-15T02:13:52.066Z,6.20
2018-07-15T02:14:55.455Z,5.90
2018-07-15T02:15:58.845Z,5.67
2018-07-15T02:17:02.273Z,5.43
2018-07-15T02:18:05.800Z,5.10
2018-07-15T02:19:09.495Z,5.40
2018-07-15T02:20:12.846Z,5.30
2018-07-15T02:21:16.233Z,5.27
2018-07-15T02:22:20.118Z,5.93
2018-07-15T02:23:23.704Z,5.80
2018-07-15T02:24:27.050Z,5.10
2018-07-15T02:25:30.390Z,4.80
2018-07-15T02:26:33.748Z,5.23
2018-07-15T02:27:37.111Z,5.67
2018-07-15T02:28:40.519Z,4.67
2018-07-15T02:29:44.020Z,5.43
2018-07-15T02:30:47.398Z,5.33
2018-07-15T02:31:50.498Z,5.43
2018-07-15T02:32:53.891Z,5.97
2018-07-15T02:33:58.381Z,4.50
2018-07-15T02:35:01.716Z,6.40
2018-07-15T02:36:05.674Z,6.77
2018-07-15T02:37:09.251Z,4.93
2018-07-15T02:38:12.638Z,4.90
2018-07-15T02:39:16.026Z,5.30
2018-07-15T02:40:19.362Z,4.80
2018-07-15T02:41:22.844Z,5.07
2018-07-15T02:42:26.342Z,4.97
2018-07-15T02:43:29.757Z,4.90
2018-07-15T02:44:33.264Z,5.23
2018-07-15T02:45:36.874Z,5.63
2018-07-15T02:46:40.322Z,5.13
2018-07-15T02:47:43.709Z,4.80
2018-07-15T02:48:47.052Z,5.60
2018-07-15T02:49:50.461Z,5.10
2018-07-15T02:50:53.812Z,5.40
2018-07-15T02:51:57.240Z,5.07
2018-07-15T02:53:00.563Z,5.83
2018-07-15T02:54:03.889Z,5.20
2018-07-15T02:55:07.233Z,5.00
2018-07-15T02:56:10.685Z,6.37
2018-07-15T02:57:14.210Z,4.10
2018-07-15T02:58:17.525Z,4.93
2018-07-15T02:59:21.023Z,5.83
2018-07-15T03:00:24.425Z,5.20
2018-07-15T03:01:27.742Z,5.00
2018-07-15T03:02:31.185Z,5.30
2018-07-15T03:03:34.553Z,4.87
2018-07-15T03:04:37.881Z,5.60
2018-07-15T03:05:41.460Z,5.10
2018-07-15T03:06:44.806Z,6.80
2018-07-15T03:07:48.230Z,4.93
2018-07-15T03:08:51.570Z,5.13
2018-07-15T03:09:54.896Z,5.07
2018-07-15T03:10:58.436Z,4.27
2018-07-15T03:12:01.753Z,6.07
2018-07-15T03:13:05.150Z,4.50
2018-07-15T03:14:08.696Z,4.50
2018-07-15T03:15:12.192Z,4.87
2018-07-15T03:16:15.670Z,4.93
2018-07-15T03:17:19.167Z,5.63
2018-07-15T03:18:22.454Z,5.10
2018-07-15T03:19:25.835Z,5.20
2018-07-15T03:20:30.152Z,5.47
2018-07-15T03:21:33.541Z,5.13
2018-07-15T03:22:37.083Z,5.30
2018-07-15T03:23:40.405Z,5.40
2018-07-15T03:24:43.723Z,5.07
2018-07-15T03:25:47.139Z,4.53
2018-07-15T03:26:51.255Z,5.40
2018-07-15T03:27:54.612Z,5.00
2018-07-15T03:28:57.979Z,5.57
2018-07-15T03:30:01.370Z,5.00
2018-07-15T03:31:04.771Z,5.33
2018-07-15T03:32:08.124Z,4.70
2018-07-15T03:33:11.479Z,6.23
2018-07-15T03:34:14.968Z,5.50
2018-07-15T03:35:18.049Z,5.30
2018-07-15T03:36:21.414Z,5.73
2018-07-15T03:37:24.756Z,4.77
2018-07-15T03:38:28.140Z,5.50
2018-07-15T03:39:31.487Z,4.90
2018-07-15T03:40:34.854Z,5.77
2018-07-15T03:41:38.265Z,5.93
2018-07-15T03:42:41.785Z,5.23
2018-07-15T03:43:45.185Z,5.43
2018-07-15T03:44:48.500Z,5.13
2018-07-15T03:45:51.867Z,5.40
2018-07-15T03:46:55.189Z,5.23
2018-07-15T03:47:58.533Z,5.77
2018-07-15T03:49:02.037Z,5.60
2018-07-15T03:50:05.419Z,6.20
2018-07-15T03:51:08.893Z,5.20
2018-07-15T03:52:12.389Z,4.90
2018-07-15T03:53:15.711Z,6.17
2018-07-15T03:54:19.076Z,5.87
2018-07-15T03:55:22.431Z,4.70
2018-07-15T03:56:26.140Z,5.17
2018-07-15T03:57:29.458Z,6.23
2018-07-15T03:58:32.804Z,6.17
2018-07-15T03:59:36.423Z,5.70
2018-07-15T04:00:39.921Z,5.43
2018-07-15T04:01:43.263Z,6.30
2018-07-15T04:02:46.651Z,5.40
2018-07-15T04:03:49.965Z,4.90
2018-07-15T04:04:53.350Z,5.30
2018-07-15T04:05:56.756Z,5.63
2018-07-15T04:07:00.223Z,6.13
2018-07-15T04:08:03.581Z,5.60
2018-07-15T04:09:07.363Z,5.83
2018-07-15T04:10:10.797Z,6.37
2018-07-15T04:11:14.216Z,6.33
2018-07-15T04:12:17.649Z,5.77
2018-07-15T04:13:21.054Z,6.60
2018-07-15T04:14:24.577Z,6.10
2018-07-15T04:15:28.021Z,5.90
2018-07-15T04:16:31.400Z,5.93
2018-07-15T04:17:34.765Z,6.10
2018-07-15T04:18:38.194Z,5.70
2018-07-15T04:19:41.553Z,5.57
2018-07-15T04:20:44.858Z,5.83
2018-07-15T04:21:48.281Z,6.43
2018-07-15T04:22:51.593Z,6.57
2018-07-15T04:23:54.912Z,5.60
2018-07-15T04:24:58.394Z,6.30
2018-07-15T04:26:01.905Z,6.13
2018-07-15T04:27:05.344Z,6.40
2018-07-15T04:28:08.784Z,5.10
2018-07-15T04:29:12.169Z,5.13
2018-07-15T04:30:15.643Z,5.47
2018-07-15T04:31:18.992Z,6.03
2018-07-15T04:32:22.293Z,5.77
2018-07-15T04:33:26.032Z,4.90
2018-07-15T04:34:29.473Z,5.90
2018-07-15T04:35:32.773Z,6.03
2018-07-15T04:36:36.242Z,5.83
2018-07-15T04:37:39.272Z,6.03
2018-07-15T04:38:42.592Z,5.60
2018-07-15T04:39:45.990Z,5.97
2018-07-15T04:40:49.360Z,5.90
2018-07-15T04:41:52.712Z,6.20
2018-07-15T04:42:56.029Z,5.83
2018-07-15T04:43:59.543Z,5.60
2018-07-15T04:45:03.000Z,5.67
2018-07-15T04:46:06.475Z,5.30
2018-07-15T04:47:09.849Z,5.33
2018-07-15T04:48:13.260Z,5.50
2018-07-15T04:49:16.888Z,5.20
2018-07-15T04:50:20.294Z,5.43
2018-07-15T04:51:23.762Z,5.17
2018-07-15T04:52:27.157Z,5.70
2018-07-15T04:53:30.508Z,5.30
2018-07-15T04:54:33.864Z,5.20
2018-07-15T04:55:37.413Z,5.63
2018-07-15T04:56:41.836Z,6.53
2018-07-15T04:57:45.208Z,6.00
2018-07-15T04:58:48.624Z,5.80
2018-07-15T04:59:51.945Z,5.80
2018-07-15T05:00:55.356Z,5.00
2018-07-15T05:01:58.865Z,5.83
2018-07-15T05:03:02.192Z,7.17
2018-07-15T05:04:05.897Z,5.30
2018-07-15T05:05:09.245Z,5.97
2018-07-15T05:06:12.580Z,5.27
2018-07-15T05:07:16.020Z,5.30
2018-07-15T05:08:19.490Z,4.87
2018-07-15T05:09:22.855Z,6.00
2018-07-15T05:10:26.425Z,5.50
2018-07-15T05:11:29.786Z,5.47
2018-07-15T05:12:33.125Z,6.00
2018-07-15T05:13:36.516Z,5.57
2018-07-15T05:14:39.998Z,5.33
2018-07-15T05:15:43.331Z,5.30
2018-07-15T05:16:46.775Z,6.30
2018-07-15T05:17:50.112Z,5.77
2018-07-15T05:18:53.449Z,6.20
2018-07-15T05:19:57.073Z,6.33
2018-07-15T05:21:00.512Z,5.47
2018-07-15T05:22:03.936Z,6.37
2018-07-15T05:23:07.249Z,5.77
2018-07-15T05:24:10.642Z,6.30
2018-07-15T05:25:13.953Z,5.73
2018-07-15T05:26:17.339Z,6.37
2018-07-15T05:27:20.752Z,6.00
2018-07-15T05:28:24.114Z,6.30
2018-07-15T05:29:27.805Z,5.57
2018-07-15T05:30:31.192Z,5.67
2018-07-15T05:31:34.577Z,6.70
2018-07-15T05:32:37.893Z,6.17
2018-07-15T05:33:41.302Z,6.60
2018-07-15T05:34:44.648Z,6.87
2018-07-15T05:35:47.963Z,5.77
2018-07-15T05:36:51.614Z,6.40
2018-07-15T05:37:55.002Z,6.50
2018-07-15T05:38:58.364Z,5.97
2018-07-15T05:40:01.975Z,7.10
2018-07-15T05:41:05.562Z,7.57
2018-07-15T05:42:08.890Z,6.87
2018-07-15T05:43:12.234Z,7.70
2018-07-15T05:44:15.595Z,6.07
2018-07-15T05:45:18.896Z,6.17
2018-07-15T05:46:22.221Z,6.30
2018-07-15T05:47:25.713Z,6.80
2018-07-15T05:48:29.052Z,6.37
2018-07-15T05:49:32.374Z,7.47
2018-07-15T05:50:35.684Z,6.53
2018-07-15T05:51:39.065Z,6.50
2018-07-15T05:52:42.474Z,5.87
2018-07-15T05:53:45.822Z,7.27
2018-07-15T05:54:49.144Z,6.77
2018-07-15T05:55:52.681Z,6.97
2018-07-15T05:56:56.272Z,6.60
2018-07-15T05:57:59.785Z,6.60
2018-07-15T05:59:03.231Z,7.40
2018-07-15T06:00:06.586Z,8.33
2018-07-15T06:01:09.617Z,6.97
2018-07-15T06:02:13.083Z,6.37
2018-07-15T06:03:16.620Z,6.07
2018-07-15T06:04:20.054Z,8.23
2018-07-15T06:05:23.452Z,7.37
2018-07-15T06:06:26.781Z,7.13
2018-07-15T06:07:30.143Z,7.53
2018-07-15T06:08:33.500Z,7.10
2018-07-15T06:09:36.879Z,6.80
2018-07-15T06:10:40.411Z,7.50
2018-07-15T06:11:43.713Z,8.30
2018-07-15T06:12:47.078Z,7.50
2018-07-15T06:13:50.706Z,6.23
2018-07-15T06:14:54.033Z,7.03
2018-07-15T06:15:57.418Z,7.63
2018-07-15T06:17:00.969Z,6.50
2018-07-15T06:18:04.583Z,6.20
2018-07-15T06:19:08.047Z,6.70
2018-07-15T06:20:11.513Z,7.27
2018-07-15T06:21:14.921Z,7.43
2018-07-15T06:22:18.625Z,6.33
2018-07-15T06:23:22.049Z,6.60
2018-07-15T06:24:25.419Z,6.87
2018-07-15T06:25:28.752Z,6.93
2018-07-15T06:26:32.167Z,5.87
2018-07-15T06:27:35.612Z,6.80
2018-07-15T06:28:38.965Z,6.67
2018-07-15T06:29:42.388Z,6.60
2018-07-15T06:30:45.830Z,6.57
2018-07-15T06:31:49.332Z,7.53
2018-07-15T06:32:52.774Z,8.10
2018-07-15T06:33:56.184Z,6.83
2018-07-15T06:34:59.705Z,6.87
2018-07-15T06:36:03.164Z,7.77
2018-07-15T06:37:07.017Z,7.17
2018-07-15T06:38:10.462Z,8.03
2018-07-15T06:39:13.852Z,6.80
2018-07-15T06:40:17.241Z,7.10
2018-07-15T06:41:20.660Z,6.67
2018-07-15T06:42:24.018Z,6.60
2018-07-15T06:43:27.368Z,7.03
2018-07-15T06:44:30.969Z,6.90
2018-07-15T06:45:34.338Z,6.20
2018-07-15T06:46:37.655Z,7.07
2018-07-15T06:47:40.989Z,6.80
2018-07-15T06:48:44.417Z,8.83
2018-07-15T06:49:47.902Z,6.77
2018-07-15T06:50:51.335Z,6.53
2018-07-15T06:51:54.944Z,7.20
2018-07-15T06:52:58.391Z,7.13
2018-07-15T06:54:01.972Z,7.13
2018-07-15T06:55:05.974Z,6.10
2018-07-15T06:56:09.345Z,6.90
2018-07-15T06:57:12.684Z,7.23
2018-07-15T06:58:16.005Z,6.53
2018-07-15T06:59:19.434Z,6.70
2018-07-15T07:00:22.777Z,6.83
2018-07-15T07:01:26.154Z,7.33
2018-07-15T07:02:29.315Z,6.57
2018-07-15T07:03:32.696Z,7.77
2018-07-15T07:04:36.103Z,7.50
2018-07-15T07:05:39.429Z,6.80
2018-07-15T07:06:42.783Z,6.60
2018-07-15T07:07:46.202Z,6.30
2018-07-15T07:08:50.128Z,8.43
2018-07-15T07:09:53.510Z,5.73
2018-07-15T07:10:56.972Z,6.30
2018-07-15T07:12:00.488Z,7.40
2018-07-15T07:13:04.091Z,7.30
2018-07-15T07:14:07.740Z,7.47
2018-07-15T07:15:11.201Z,6.40
2018-07-15T07:16:14.615Z,6.80
2018-07-15T07:17:18.025Z,6.00
2018-07-15T07:18:21.390Z,6.07
2018-07-15T07:19:24.739Z,7.40
2018-07-15T07:20:28.140Z,6.60
2018-07-15T07:21:31.482Z,6.20
2018-07-15T07:22:35.285Z,6.87
2018-07-15T07:23:38.630Z,7.00
2018-07-15T07:24:42.276Z,7.87
2018-07-15T07:25:45.707Z,7.03
2018-07-15T07:26:49.268Z,6.67
2018-07-15T07:27:52.884Z,7.63
2018-07-15T07:28:56.279Z,6.70
2018-07-15T07:29:59.637Z,6.73
2018-07-15T07:31:03.140Z,6.50
2018-07-15T07:32:06.871Z,7.40
2018-07-15T07:33:10.253Z,7.73
2018-07-15T07:34:13.780Z,6.73
2018-07-15T07:35:17.151Z,7.37
2018-07-15T07:36:20.478Z,7.70
2018-07-15T07:37:23.828Z,6.60
2018-07-15T07:38:27.217Z,6.23
2018-07-15T07:39:30.585Z,7.27
2018-07-15T07:40:34.100Z,8.40
2018-07-15T07:41:37.893Z,6.77
2018-07-15T07:42:41.389Z,7.50
2018-07-15T07:43:44.745Z,7.00
2018-07-15T07:44:48.173Z,7.50
2018-07-15T07:45:51.656Z,8.20
2018-07-15T07:46:55.130Z,7.17
2018-07-15T07:47:58.708Z,7.43
2018-07-15T07:49:02.354Z,6.90
2018-07-15T07:50:05.984Z,7.50
2018-07-15T07:51:09.397Z,6.50
2018-07-15T07:52:12.784Z,7.27
2018-07-15T07:53:16.267Z,6.20
2018-07-15T07:54:19.990Z,7.20
2018-07-15T07:55:23.529Z,7.53
2018-07-15T07:56:26.921Z,6.97
2018-07-15T07:57:30.229Z,6.40
2018-07-15T07:58:33.585Z,7.67
2018-07-15T07:59:37.210Z,7.70
2018-07-15T08:00:40.597Z,6.70
2018-07-15T08:01:44.000Z,5.60
2018-07-15T08:02:47.373Z,7.00
2018-07-15T08:03:50.750Z,7.73
2018-07-15T08:04:54.100Z,6.57
2018-07-15T08:05:57.465Z,6.97
2018-07-15T08:07:00.813Z,6.77
2018-07-15T08:08:04.261Z,7.40
2018-07-15T08:09:07.804Z,6.70
2018-07-15T08:10:11.270Z,7.00
2018-07-15T08:11:14.731Z,6.17
2018-07-15T08:12:18.089Z,7.77
2018-07-15T08:13:21.674Z,7.70
2018-07-15T08:14:25.255Z,7.33
2018-07-15T08:15:28.938Z,6.77
2018-07-15T08:16:32.393Z,7.83
2018-07-15T08:17:35.762Z,7.80
2018-07-15T08:18:39.164Z,7.80
2018-07-15T08:19:42.586Z,7.73
2018-07-15T08:20:46.040Z,8.57
2018-07-15T08:21:49.433Z,7.60
2018-07-15T08:22:53.134Z,7.33
2018-07-15T08:23:56.609Z,6.93
2018-07-15T08:25:00.019Z,7.17
2018-07-15T08:26:03.463Z,7.30
2018-07-15T08:27:06.537Z,9.33
2018-07-15T08:28:10.110Z,9.00
2018-07-15T08:29:13.235Z,7.77
2018-07-15T08:30:27.953Z,7.70
2018-07-15T08:31:31.405Z,7.37
2018-07-15T08:32:35.231Z,7.07
2018-07-15T08:33:38.617Z,7.77
2018-07-15T08:34:43.480Z,6.90
2018-07-15T08:35:47.038Z,7.90
2018-07-15T08:36:50.111Z,8.23
2018-07-15T08:37:54.252Z,7.17
2018-07-15T08:38:57.794Z,7.50
2018-07-15T08:40:01.218Z,7.83
2018-07-15T08:41:04.693Z,8.00
2018-07-15T08:42:08.180Z,7.63
2018-07-15T08:43:11.741Z,8.23
2018-07-15T08:44:15.132Z,7.40
2018-07-15T08:45:18.518Z,7.33
2018-07-15T08:46:21.936Z,8.17
2018-07-15T08:47:25.458Z,9.70
2018-07-15T08:48:28.847Z,8.57
2018-07-15T08:49:32.307Z,7.80
2018-07-15T08:50:35.856Z,8.27
2018-07-15T08:51:39.379Z,8.30
2018-07-15T08:52:42.777Z,9.60
2018-07-15T08:53:46.292Z,7.57
2018-07-15T08:54:49.710Z,7.40
2018-07-15T08:55:53.561Z,7.70
2018-07-15T08:56:56.906Z,7.63
2018-07-15T08:58:00.696Z,7.30
2018-07-15T08:59:04.017Z,7.60
2018-07-15T09:00:07.666Z,7.30
2018-07-15T09:01:11.093Z,8.40
2018-07-15T09:02:14.502Z,7.60
2018-07-15T09:03:17.894Z,7.97
2018-07-15T09:04:21.362Z,7.93
2018-07-15T09:05:24.713Z,8.40
2018-07-15T09:06:27.832Z,7.67
2018-07-15T09:07:31.334Z,7.77
2018-07-15T09:08:34.705Z,7.37
2018-07-15T09:09:38.120Z,7.47
2018-07-15T09:10:41.632Z,9.07
2018-07-15T09:11:45.025Z,7.20
2018-07-15T09:12:48.583Z,5.90
2018-07-15T09:13:52.021Z,7.20
2018-07-15T09:14:55.433Z,7.63
2018-07-15T09:15:58.824Z,7.27
2018-07-15T09:17:02.187Z,7.83
2018-07-15T09:18:05.592Z,9.03
2018-07-15T09:19:09.025Z,8.37
2018-07-15T09:20:12.797Z,8.70
2018-07-15T09:21:16.843Z,7.87
2018-07-15T09:22:20.281Z,8.03
2018-07-15T09:23:23.679Z,8.10
2018-07-15T09:24:27.081Z,9.07
2018-07-15T09:25:30.425Z,8.40
2018-07-15T09:26:33.894Z,7.53
2018-07-15T09:27:37.328Z,8.47
2018-07-15T09:28:40.705Z,8.03
2018-07-15T09:29:44.144Z,7.90
2018-07-15T09:30:47.874Z,8.73
2018-07-15T09:31:51.555Z,8.23
2018-07-15T09:32:55.041Z,7.90
2018-07-15T09:33:58.400Z,8.17
2018-07-15T09:35:01.936Z,10.20
2018-07-15T09:36:05.420Z,8.77
2018-07-15T09:37:08.812Z,8.67
2018-07-15T09:38:12.237Z,8.43
2018-07-15T09:39:15.874Z,7.67
2018-07-15T09:40:19.259Z,8.47
2018-07-15T09:41:22.797Z,8.23
2018-07-15T09:42:26.285Z,8.17
2018-07-15T09:43:29.718Z,6.97
2018-07-15T09:44:35.166Z,8.03
2018-07-15T09:45:38.648Z,7.60
2018-07-15T09:46:42.245Z,6.93
2018-07-15T09:47:45.954Z,7.73
2018-07-15T09:48:49.636Z,7.90
2018-07-15T09:49:53.125Z,7.90
2018-07-15T09:50:56.552Z,8.43
2018-07-15T09:51:59.928Z,7.97
2018-07-15T09:53:03.262Z,7.33
2018-07-15T09:54:06.713Z,8.80
2018-07-15T09:55:10.632Z,7.70
2018-07-15T09:57:23.856Z,8.00
2018-07-15T09:58:27.257Z,7.20
2018-07-15T09:59:30.856Z,6.40
2018-07-15T10:00:39.658Z,6.83
2018-07-15T10:01:42.997Z,6.63
2018-07-15T10:02:46.542Z,7.20
2018-07-15T10:03:50.208Z,7.40
2018-07-15T10:04:53.675Z,21.97
2018-07-15T10:05:57.147Z,23.13
2018-07-15T10:07:00.545Z,11.23
2018-07-15T10:08:03.766Z,8.93
2018-07-15T10:09:07.457Z,8.57
2018-07-15T10:10:10.964Z,6.90
2018-07-15T10:11:14.385Z,9.67
2018-07-15T10:12:17.769Z,8.00
2018-07-15T10:13:21.232Z,7.20
2018-07-15T10:14:24.804Z,7.70
2018-07-15T10:15:28.249Z,7.30
2018-07-15T10:16:31.967Z,7.10
2018-07-15T10:17:35.369Z,8.07
2018-07-15T10:18:38.763Z,7.67
2018-07-15T10:19:42.976Z,6.30
2018-07-15T10:20:46.758Z,8.23
2018-07-15T10:21:50.110Z,7.37
2018-07-15T10:22:53.690Z,6.20
2018-07-15T10:23:57.138Z,8.10
2018-07-15T10:25:00.668Z,6.30
2018-07-15T10:26:04.151Z,7.23
2018-07-15T10:27:07.805Z,6.97
2018-07-15T10:28:11.233Z,7.30
2018-07-15T10:29:14.634Z,7.80
2018-07-15T10:30:18.353Z,6.40
2018-07-15T10:31:21.824Z,6.73
2018-07-15T10:32:25.522Z,6.53
2018-07-15T10:33:28.903Z,6.47
2018-07-15T10:34:32.572Z,7.33
2018-07-15T10:35:36.024Z,7.47
2018-07-15T10:36:39.534Z,6.27
2018-07-15T10:37:42.973Z,6.20
2018-07-15T10:38:46.450Z,6.20
2018-07-15T10:39:50.100Z,5.40
2018-07-15T10:40:53.458Z,5.53
2018-07-15T10:41:57.108Z,5.70
2018-07-15T10:43:00.530Z,6.80
2018-07-15T10:44:03.985Z,6.70
2018-07-15T10:45:07.415Z,6.10
2018-07-15T10:46:10.868Z,5.60
2018-07-15T10:47:14.303Z,5.97
2018-07-15T10:48:17.657Z,5.60
2018-07-15T10:49:21.063Z,6.77
2018-07-15T10:50:24.644Z,6.30
2018-07-15T10:51:27.977Z,6.10
2018-07-15T10:52:31.337Z,6.17
2018-07-15T10:53:35.000Z,5.73
2018-07-15T10:54:38.355Z,6.20
2018-07-15T10:55:41.895Z,5.87
2018-07-15T10:56:45.472Z,6.00
2018-07-15T10:57:48.868Z,5.80
2018-07-15T10:58:52.661Z,5.20
2018-07-15T10:59:56.145Z,5.80
2018-07-15T11:00:59.562Z,5.50
2018-07-15T11:02:03.029Z,5.83
2018-07-15T11:03:06.401Z,5.60
2018-07-15T11:04:09.809Z,5.40
2018-07-15T11:05:13.401Z,5.40
2018-07-15T11:06:16.975Z,5.83
2018-07-15T11:07:20.461Z,5.43
2018-07-15T11:08:23.935Z,7.20
2018-07-15T11:09:27.387Z,5.77
2018-07-15T11:10:31.013Z,5.20
2018-07-15T11:11:34.528Z,5.50
2018-07-15T11:12:37.946Z,5.53
2018-07-15T11:13:41.268Z,5.47
2018-07-15T11:14:46.312Z,6.10
2018-07-15T11:15:49.820Z,5.67
2018-07-15T11:16:53.219Z,5.93
2018-07-15T11:17:56.763Z,4.90
2018-07-15T11:19:00.153Z,5.50
2018-07-15T11:20:03.731Z,5.80
2018-07-15T11:21:07.148Z,6.13
2018-07-15T11:22:10.548Z,6.43
2018-07-15T11:23:14.177Z,6.47
2018-07-15T11:24:17.598Z,6.63
2018-07-15T11:25:21.130Z,6.43
2018-07-15T11:26:24.572Z,7.40
2018-07-15T11:27:27.965Z,6.67
2018-07-15T11:28:31.577Z,7.43
2018-07-15T11:29:34.986Z,7.03
2018-07-15T11:30:38.423Z,6.87
2018-07-15T11:31:41.882Z,7.73
2018-07-15T11:32:45.420Z,7.33
2018-07-15T11:33:49.166Z,8.03
2018-07-15T11:34:52.554Z,7.07
2018-07-15T11:35:55.902Z,7.40
2018-07-15T11:36:59.356Z,6.70
2018-07-15T11:38:02.723Z,6.80
2018-07-15T11:39:07.408Z,6.50
2018-07-15T11:40:10.937Z,6.90
2018-07-15T11:41:14.316Z,6.63
2018-07-15T11:42:17.653Z,7.30
2018-07-15T11:43:21.043Z,6.50
2018-07-15T11:44:24.403Z,6.97
2018-07-15T11:45:27.865Z,6.87
2018-07-15T11:46:31.316Z,6.73
2018-07-15T11:47:34.700Z,6.10
2018-07-15T11:48:37.712Z,5.73
2018-07-15T11:49:41.145Z,6.57
2018-07-15T11:50:44.489Z,5.90
2018-07-15T11:51:47.877Z,6.03
2018-07-15T11:52:51.225Z,6.43
2018-07-15T11:53:54.847Z,5.70
2018-07-15T11:54:58.307Z,6.43
2018-07-15T11:56:01.923Z,6.30
2018-07-15T11:57:05.412Z,7.30
2018-07-15T11:58:08.804Z,6.87
2018-07-15T11:59:12.271Z,7.30
2018-07-15T12:00:15.654Z,5.47
2018-07-15T12:01:19.237Z,6.53
2018-07-15T12:02:22.796Z,5.90
2018-07-15T12:03:26.450Z,6.20
2018-07-15T12:04:29.552Z,6.43
2018-07-15T12:05:32.967Z,6.40
2018-07-15T12:06:37.095Z,5.93
2018-07-15T12:07:40.505Z,6.40
2018-07-15T12:08:44.593Z,6.87
2018-07-15T12:09:48.124Z,6.07
2018-07-15T12:10:51.793Z,6.00
2018-07-15T12:11:55.839Z,6.17
2018-07-15T12:12:59.570Z,6.97
2018-07-15T12:14:03.341Z,6.60
2018-07-15T12:15:06.865Z,6.23
2018-07-15T12:16:10.385Z,5.83
2018-07-15T12:17:13.718Z,6.10
2018-07-15T12:18:17.308Z,6.63
2018-07-15T12:19:20.666Z,5.73
2018-07-15T12:20:24.109Z,6.30
2018-07-15T12:21:27.769Z,5.60
2018-07-15T12:22:31.173Z,5.57
2018-07-15T12:23:34.556Z,6.10
2018-07-15T12:24:38.050Z,5.43
2018-07-15T12:25:41.745Z,6.00
2018-07-15T12:26:45.392Z,6.00
2018-07-15T12:27:48.833Z,6.07
2018-07-15T12:28:52.312Z,6.33
2018-07-15T12:29:55.785Z,6.27
2018-07-15T12:30:59.253Z,6.37
2018-07-15T12:32:02.750Z,6.60
2018-07-15T12:33:06.170Z,5.63
2018-07-15T12:34:09.533Z,6.90
2018-07-15T12:35:13.048Z,5.40
2018-07-15T12:36:16.601Z,5.50
2018-07-15T12:37:20.145Z,7.07
2018-07-15T12:38:23.826Z,5.10
2018-07-15T12:39:27.296Z,6.50
2018-07-15T12:40:30.712Z,5.67
2018-07-15T12:41:34.079Z,6.50
2018-07-15T12:42:37.421Z,6.33
2018-07-15T12:43:40.920Z,5.57
2018-07-15T12:44:44.301Z,5.40
2018-07-15T12:45:47.692Z,5.83
2018-07-15T12:46:51.318Z,5.93
2018-07-15T12:47:54.823Z,5.50
2018-07-15T12:48:58.224Z,6.10
2018-07-15T12:50:01.633Z,5.97
2018-07-15T12:51:05.156Z,5.87
2018-07-15T12:52:09.936Z,6.00
2018-07-15T12:53:13.545Z,6.20
2018-07-15T12:54:16.989Z,6.20
2018-07-15T12:55:20.358Z,5.53
2018-07-15T12:56:23.717Z,5.40
2018-07-15T12:57:27.084Z,5.40
2018-07-15T12:58:30.845Z,4.43
2018-07-15T12:59:34.085Z,6.30
2018-07-15T13:00:37.534Z,5.70
2018-07-15T13:01:40.908Z,5.83
2018-07-15T13:02:44.398Z,5.27
2018-07-15T13:03:47.818Z,6.13
2018-07-15T13:04:51.257Z,6.40
2018-07-15T13:05:55.358Z,6.47
2018-07-15T13:06:58.885Z,6.47
2018-07-15T13:08:02.400Z,5.93
2018-07-15T13:09:06.812Z,5.60
2018-07-15T13:10:10.335Z,5.53
2018-07-15T13:11:13.934Z,5.13
2018-07-15T13:12:17.313Z,5.60
2018-07-15T13:13:20.859Z,5.50
2018-07-15T13:14:24.277Z,5.40
2018-07-15T13:15:27.737Z,5.40
2018-07-15T13:16:32.243Z,4.70
2018-07-15T13:17:35.660Z,5.37
2018-07-15T13:18:39.100Z,5.50
2018-07-15T13:19:42.627Z,5.30
2018-07-15T13:20:46.151Z,4.93
2018-07-15T13:21:49.685Z,5.13
2018-07-15T13:22:53.222Z,5.50
2018-07-15T13:23:57.112Z,4.80
2018-07-15T13:25:00.521Z,6.23
2018-07-15T13:26:03.966Z,4.90
2018-07-15T13:27:07.354Z,5.13
2018-07-15T13:28:10.962Z,5.60
2018-07-15T13:29:14.364Z,4.87
2018-07-15T13:30:17.824Z,5.63
2018-07-15T13:31:21.176Z,6.00
2018-07-15T13:32:24.685Z,5.17
2018-07-15T13:33:28.103Z,4.67
2018-07-15T13:34:31.668Z,4.70
2018-07-15T13:35:35.119Z,5.00
2018-07-15T13:36:38.548Z,4.97
2018-07-15T13:37:41.972Z,4.70
2018-07-15T13:38:45.615Z,5.27
2018-07-15T13:39:48.977Z,4.83
2018-07-15T13:40:52.500Z,5.10
2018-07-15T13:41:55.960Z,4.73
2018-07-15T13:42:59.442Z,4.87
2018-07-15T13:44:02.811Z,6.10
2018-07-15T13:45:06.184Z,5.33
2018-07-15T13:46:09.670Z,4.83
2018-07-15T13:47:13.166Z,5.37
2018-07-15T13:48:16.609Z,4.73
2018-07-15T13:49:20.108Z,4.60
2018-07-15T13:50:23.650Z,5.50
2018-07-15T13:51:27.107Z,5.60
2018-07-15T13:52:30.675Z,5.20
2018-07-15T13:53:34.024Z,6.00
2018-07-15T13:54:37.095Z,5.87
2018-07-15T13:55:40.578Z,6.03
2018-07-15T13:56:43.977Z,5.30
2018-07-15T13:57:47.657Z,5.60
2018-07-15T13:58:50.727Z,4.90
2018-07-15T13:59:54.318Z,5.63
2018-07-15T14:00:57.795Z,5.00
2018-07-15T14:02:01.399Z,5.13
2018-07-15T14:03:05.027Z,5.20
2018-07-15T14:04:08.460Z,5.23
2018-07-15T14:05:12.137Z,4.70
2018-07-15T14:06:15.578Z,5.23